createdAt,value
2022-08-22T00:02:00.549Z,7.95
2022-08-22T00:03:03.866Z,7.93
2022-08-22T00:05:10.396Z,7.03
2022-08-22T00:08:21.717Z,7.83
2022-08-22T00:11:54.926Z,8.43
2022-08-22T00:15:06.090Z,8.52
2022-08-22T00:18:25.104Z,10.00
2022-08-22T00:21:33.697Z,13.00
2022-08-22T00:24:49.573Z,7.30
2022-08-22T00:28:11.092Z,8.85
2022-08-22T00:31:22.013Z,8.13
2022-08-22T00:34:33.251Z,10.20
2022-08-22T00:37:42.970Z,9.45
2022-08-22T00:41:04.284Z,9.47
2022-08-22T00:44:29.964Z,10.70
2022-08-22T00:47:38.251Z,11.48
2022-08-22T00:50:47.126Z,17.20
2022-08-22T00:54:04.512Z,12.25
2022-08-22T00:57:29.889Z,10.43
2022-08-22T01:00:44.142Z,13.98
2022-08-22T01:03:59.134Z,10.13
2022-08-22T01:07:30.562Z,12.23
2022-08-22T01:11:23.494Z,9.55
2022-08-22T01:14:38.511Z,10.17
2022-08-22T01:18:03.017Z,11.60
2022-08-22T01:22:01.458Z,9.90
2022-08-22T01:25:22.493Z,10.60
2022-08-22T01:28:55.207Z,10.13
2022-08-22T01:32:05.605Z,11.73
2022-08-22T01:35:59.892Z,10.43
2022-08-22T01:39:20.884Z,9.20
2022-08-22T01:42:43.583Z,11.05
2022-08-22T01:46:25.118Z,11.75
2022-08-22T01:49:34.802Z,12.00
2022-08-22T01:52:51.677Z,10.77
2022-08-22T01:56:08.036Z,10.38
2022-08-22T01:59:17.625Z,11.20
2022-08-22T02:03:13.934Z,9.38
2022-08-22T02:06:49.584Z,9.70
2022-08-22T02:10:06.530Z,10.10
2022-08-22T02:13:49.616Z,11.30
2022-08-22T02:16:58.008Z,9.60
2022-08-22T02:20:12.475Z,9.02
2022-08-22T02:23:16.060Z,19.17
2022-08-22T02:26:46.774Z,9.65
2022-08-22T02:30:04.687Z,10.85
2022-08-22T02:33:32.679Z,10.32
2022-08-22T02:36:46.746Z,10.70
2022-08-22T02:40:03.204Z,9.20
2022-08-22T02:43:24.397Z,8.88
2022-08-22T02:46:50.208Z,8.48
2022-08-22T02:50:18.180Z,10.52
2022-08-22T02:53:34.137Z,9.73
2022-08-22T02:56:52.562Z,10.40
2022-08-22T03:00:31.918Z,8.63
2022-08-22T03:03:40.732Z,10.45
2022-08-22T03:07:12.893Z,9.50
2022-08-22T03:10:31.469Z,11.93
2022-08-22T03:14:05.334Z,9.03
2022-08-22T03:17:08.912Z,13.70
2022-08-22T03:20:36.913Z,9.00
2022-08-22T03:23:47.667Z,9.68
2022-08-22T03:26:57.482Z,12.73
2022-08-22T03:30:07.583Z,12.03
2022-08-22T03:33:30.450Z,12.23
2022-08-22T03:36:33.771Z,23.83
2022-08-22T03:39:57.562Z,12.95
2022-08-22T03:43:13.883Z,16.30
2022-08-22T03:46:46.231Z,14.90
2022-08-22T03:49:57.664Z,15.23
2022-08-22T03:53:19.021Z,13.00
2022-08-22T03:56:25.349Z,13.85
2022-08-22T03:59:56.318Z,14.98
2022-08-22T04:03:00.323Z,15.27
2022-08-22T04:06:12.721Z,13.90
2022-08-22T04:09:23.400Z,15.27
2022-08-22T04:12:58.694Z,14.40
2022-08-22T04:16:17.561Z,17.27
2022-08-22T04:19:58.778Z,11.93
2022-08-22T04:23:14.169Z,12.85
2022-08-22T04:26:47.041Z,14.70
2022-08-22T04:30:18.911Z,13.95
2022-08-22T04:33:30.490Z,14.45
2022-08-22T04:36:56.127Z,14.47
2022-08-22T04:40:22.636Z,16.75
2022-08-22T04:43:35.441Z,16.37
2022-08-22T04:46:50.202Z,15.85
2022-08-22T04:50:08.405Z,13.43
2022-08-22T04:53:53.525Z,13.53
2022-08-22T04:57:17.074Z,15.60
2022-08-22T05:00:21.517Z,14.25
2022-08-22T05:03:28.948Z,14.30
2022-08-22T05:06:35.318Z,14.90
2022-08-22T05:09:43.821Z,18.03
2022-08-22T05:13:09.987Z,15.55
2022-08-22T05:16:25.686Z,15.82
2022-08-22T05:19:37.702Z,13.48
2022-08-22T05:22:49.683Z,14.13
2022-08-22T05:25:57.384Z,19.93
2022-08-22T05:29:03.885Z,15.73
2022-08-22T05:32:31.483Z,14.55
2022-08-22T05:35:38.337Z,16.30
2022-08-22T05:38:46.474Z,14.15
2022-08-22T05:41:50.065Z,16.13
2022-08-22T05:44:54.512Z,14.30
2022-08-22T05:48:05.945Z,16.00
2022-08-22T05:51:17.574Z,15.02
2022-08-22T05:54:33.469Z,15.60
2022-08-22T05:57:42.320Z,14.73
2022-08-22T06:00:49.277Z,17.17
2022-08-22T06:04:06.905Z,14.60
2022-08-22T06:07:13.131Z,16.50
2022-08-22T06:10:20.189Z,10.73
2022-08-22T06:13:41.511Z,13.13
2022-08-22T06:16:50.414Z,13.82
2022-08-22T06:19:55.514Z,14.30
2022-08-22T06:23:02.709Z,14.43
2022-08-22T06:26:20.645Z,17.33
2022-08-22T06:29:49.311Z,14.17
2022-08-22T06:33:00.996Z,15.25
2022-08-22T06:36:27.783Z,16.85
2022-08-22T06:39:33.873Z,19.08
2022-08-22T06:42:41.572Z,16.70
2022-08-22T06:45:44.750Z,15.93
2022-08-22T06:48:49.669Z,17.40
2022-08-22T06:51:54.267Z,16.58
2022-08-22T06:55:01.816Z,16.33
2022-08-22T06:58:15.555Z,15.30
2022-08-22T07:01:25.887Z,16.23
2022-08-22T07:04:29.508Z,15.23
2022-08-22T07:07:32.851Z,18.30
2022-08-22T07:10:38.184Z,18.23
2022-08-22T07:13:46.718Z,20.25
2022-08-22T07:17:00.377Z,17.70
2022-08-22T07:20:35.956Z,18.42
2022-08-22T07:23:45.222Z,17.83
2022-08-22T07:27:09.092Z,19.62
2022-08-22T07:30:16.982Z,22.58
2022-08-22T07:33:40.957Z,18.23
2022-08-22T07:37:03.349Z,19.58
2022-08-22T07:40:22.524Z,20.90
2022-08-22T07:43:49.661Z,17.27
2022-08-22T07:47:01.440Z,22.73
2022-08-22T07:50:08.118Z,18.73
2022-08-22T07:53:25.950Z,19.35
2022-08-22T07:56:42.415Z,17.15
2022-08-22T07:59:55.948Z,19.17
2022-08-22T08:03:06.027Z,19.62
2022-08-22T08:06:11.560Z,18.13
2022-08-22T08:09:16.105Z,18.70
2022-08-22T08:12:22.339Z,20.05
2022-08-22T08:15:26.332Z,20.60
2022-08-22T08:18:35.310Z,16.52
2022-08-22T08:21:42.977Z,19.40
2022-08-22T08:24:48.469Z,18.15
2022-08-22T08:28:11.615Z,16.35
2022-08-22T08:31:26.083Z,17.35
2022-08-22T08:34:32.574Z,16.87
2022-08-22T08:37:50.304Z,12.17
2022-08-22T08:41:12.617Z,18.60
2022-08-22T08:44:35.813Z,14.55
2022-08-22T08:48:03.681Z,13.80
2022-08-22T08:51:36.175Z,14.85
2022-08-22T08:54:56.254Z,15.60
2022-08-22T08:58:10.440Z,13.80
2022-08-22T09:01:39.338Z,13.35
2022-08-22T09:05:01.941Z,14.43
2022-08-22T09:08:27.647Z,13.75
2022-08-22T09:12:04.307Z,14.20
2022-08-22T09:15:16.881Z,13.05
2022-08-22T09:18:46.517Z,13.62
2022-08-22T09:22:14.609Z,13.15
2022-08-22T09:25:45.771Z,10.50
2022-08-22T09:28:55.940Z,11.60
2022-08-22T09:32:24.843Z,12.77
2022-08-22T09:35:56.586Z,11.20
2022-08-22T09:39:29.163Z,13.68
2022-08-22T09:42:38.347Z,12.10
2022-08-22T09:45:58.512Z,14.60
2022-08-22T09:49:14.125Z,11.43
2022-08-22T09:52:51.363Z,13.23
2022-08-22T09:56:11.571Z,17.42
2022-08-22T09:59:18.779Z,13.82
2022-08-22T10:02:34.854Z,10.70
2022-08-22T10:05:45.099Z,12.73
2022-08-22T10:08:59.058Z,11.35
2022-08-22T10:12:12.864Z,16.62
2022-08-22T10:15:34.242Z,10.77
2022-08-22T10:18:56.170Z,11.43
2022-08-22T10:22:13.592Z,12.88
2022-08-22T10:25:32.127Z,12.35
2022-08-22T10:29:00.751Z,10.82
2022-08-22T10:32:42.967Z,12.93
2022-08-22T10:36:00.851Z,11.63
2022-08-22T10:39:22.595Z,12.18
2022-08-22T10:42:27.980Z,11.38
2022-08-22T10:45:43.834Z,11.38
2022-08-22T10:48:59.089Z,12.25
2022-08-22T10:52:44.050Z,8.87
2022-08-22T10:55:50.711Z,11.45
2022-08-22T10:59:19.517Z,12.18
2022-08-22T11:03:02.429Z,12.70
2022-08-22T11:06:15.103Z,11.55
2022-08-22T11:09:26.411Z,10.20
2022-08-22T11:12:41.708Z,10.80
2022-08-22T11:16:04.135Z,9.65
2022-08-22T11:19:29.726Z,11.43
2022-08-22T11:23:17.756Z,8.55
2022-08-22T11:26:47.253Z,9.47
2022-08-22T11:30:18.496Z,11.43
2022-08-22T11:33:58.379Z,11.10
2022-08-22T11:37:11.019Z,13.73
2022-08-22T11:40:22.044Z,9.50
2022-08-22T11:43:33.118Z,12.60
2022-08-22T11:46:38.665Z,12.65
2022-08-22T11:50:21.881Z,12.55
2022-08-22T11:53:46.168Z,11.45
2022-08-22T11:56:55.160Z,11.38
2022-08-22T12:00:34.971Z,13.63
2022-08-22T12:03:55.774Z,9.85
2022-08-22T12:07:27.350Z,10.00
2022-08-22T12:10:35.553Z,10.30
2022-08-22T12:14:06.931Z,10.75
2022-08-22T12:17:55.765Z,12.80
2022-08-22T12:21:28.767Z,13.90
2022-08-22T12:24:48.545Z,12.13
2022-08-22T12:28:00.383Z,11.68
2022-08-22T12:31:08.277Z,11.27
2022-08-22T12:34:24.730Z,11.97
2022-08-22T12:37:52.107Z,12.88
2022-08-22T12:41:28.459Z,11.65
2022-08-22T12:44:49.387Z,11.57
2022-08-22T12:48:04.087Z,14.35
2022-08-22T12:51:22.617Z,12.40
2022-08-22T12:54:42.185Z,11.10
2022-08-22T12:58:34.536Z,10.07
2022-08-22T13:01:44.342Z,12.07
2022-08-22T13:04:55.025Z,9.52
2022-08-22T13:08:04.690Z,13.63
2022-08-22T13:11:22.842Z,10.00
2022-08-22T13:14:28.101Z,11.15
2022-08-22T13:17:35.914Z,10.23
2022-08-22T13:20:43.408Z,10.45
2022-08-22T13:23:53.529Z,9.90
2022-08-22T13:27:02.467Z,10.32
2022-08-22T13:30:21.934Z,9.63
2022-08-22T13:33:33.201Z,15.52
2022-08-22T13:36:51.722Z,10.77
2022-08-22T13:40:01.775Z,12.77
2022-08-22T13:43:15.162Z,11.38
2022-08-22T13:46:23.311Z,10.32
2022-08-22T13:49:36.101Z,10.32
2022-08-22T13:52:52.229Z,9.38
2022-08-22T13:56:07.988Z,9.50
2022-08-22T13:59:49.653Z,9.88
2022-08-22T14:03:05.421Z,12.93
2022-08-22T14:06:37.316Z,10.18
2022-08-22T14:09:57.147Z,9.13
2022-08-22T14:13:00.524Z,9.57
2022-08-22T14:16:07.196Z,11.23
2022-08-22T14:19:27.202Z,11.82
2022-08-22T14:22:35.406Z,13.48
2022-08-22T14:25:40.666Z,13.15
2022-08-22T14:28:43.605Z,13.70
2022-08-22T14:32:04.470Z,14.23
2022-08-22T14:35:35.294Z,13.98
2022-08-22T14:38:47.705Z,13.88
2022-08-22T14:41:58.659Z,14.75
2022-08-22T14:45:16.134Z,13.30
2022-08-22T14:48:29.877Z,12.13
2022-08-22T14:51:35.825Z,11.65
2022-08-22T14:54:39.451Z,15.55
2022-08-22T14:57:58.280Z,14.52
2022-08-22T15:01:12.371Z,15.10
2022-08-22T15:04:25.697Z,12.40
2022-08-22T15:07:34.891Z,17.65
2022-08-22T15:10:42.425Z,13.70
2022-08-22T15:14:12.574Z,14.20
2022-08-22T15:18:01.169Z,13.13
2022-08-22T15:21:10.044Z,12.82
2022-08-22T15:24:14.308Z,14.48
2022-08-22T15:27:20.360Z,15.07
2022-08-22T15:30:34.894Z,14.77
2022-08-22T15:33:43.233Z,14.80
2022-08-22T15:37:25.915Z,13.25
2022-08-22T15:40:45.729Z,12.60
2022-08-22T15:43:54.322Z,14.93
2022-08-22T15:47:48.139Z,12.73
2022-08-22T15:51:10.603Z,13.37
2022-08-22T15:54:24.775Z,14.10
2022-08-22T15:57:40.900Z,12.27
2022-08-22T16:01:18.953Z,12.40
2022-08-22T16:04:40.391Z,12.13
2022-08-22T16:07:44.162Z,14.80
2022-08-22T16:11:19.408Z,13.27
2022-08-22T16:14:50.604Z,10.55
2022-08-22T16:17:55.201Z,10.50
2022-08-22T16:20:58.239Z,12.82
2022-08-22T16:24:02.195Z,10.60
2022-08-22T16:27:19.426Z,9.10
2022-08-22T16:30:33.029Z,11.05
2022-08-22T16:33:39.710Z,15.23
2022-08-22T16:36:42.825Z,5.40
2022-08-22T16:40:13.043Z,7.37
2022-08-22T16:43:19.468Z,5.30
2022-08-22T16:46:34.608Z,6.32
2022-08-22T16:50:19.371Z,9.60
2022-08-22T16:53:28.187Z,12.90
2022-08-22T16:56:38.446Z,16.07
2022-08-22T16:59:49.526Z,20.33
2022-08-22T17:02:58.557Z,18.48
2022-08-22T17:06:18.759Z,7.20
2022-08-22T17:09:44.429Z,8.75
2022-08-22T17:13:07.796Z,7.47
2022-08-22T17:16:23.339Z,4.97
2022-08-22T17:20:01.173Z,4.60
2022-08-22T17:23:22.881Z,4.68
2022-08-22T17:26:55.182Z,4.22
2022-08-22T17:30:20.332Z,4.30
2022-08-22T17:33:51.213Z,5.78
2022-08-22T17:37:26.099Z,4.68
2022-08-22T17:41:08.797Z,5.47
2022-08-22T17:44:20.966Z,7.32
2022-08-22T17:47:32.022Z,5.23
2022-08-22T17:50:56.049Z,8.65
2022-08-22T17:54:41.173Z,7.90
2022-08-22T17:57:44.661Z,10.68
2022-08-22T18:00:54.071Z,10.00
2022-08-22T18:04:00.397Z,6.27
2022-08-22T18:07:16.274Z,8.15
2022-08-22T18:10:50.582Z,7.12
2022-08-22T18:14:13.928Z,5.80
2022-08-22T18:17:21.380Z,6.80
2022-08-22T18:20:32.559Z,7.30
2022-08-22T18:24:05.380Z,7.45
2022-08-22T18:27:29.963Z,15.95
2022-08-22T18:30:53.558Z,10.27
2022-08-22T18:34:01.586Z,9.80
2022-08-22T18:37:53.738Z,7.57
2022-08-22T18:41:06.042Z,8.65
2022-08-22T18:44:13.753Z,9.75
2022-08-22T18:47:32.742Z,7.28
2022-08-22T18:50:36.933Z,9.82
2022-08-22T18:53:46.739Z,8.73
2022-08-22T18:57:10.817Z,13.10
2022-08-22T19:00:46.758Z,9.77
2022-08-22T19:04:27.477Z,8.23
2022-08-22T19:07:41.411Z,10.40
2022-08-22T19:11:13.111Z,7.27
2022-08-22T19:14:44.051Z,10.10
2022-08-22T19:18:17.794Z,6.87
2022-08-22T19:21:44.217Z,7.45
2022-08-22T19:25:08.911Z,7.32
2022-08-22T19:28:13.169Z,8.63
2022-08-22T19:31:35.689Z,8.68
2022-08-22T19:34:47.159Z,9.77
2022-08-22T19:38:01.407Z,13.73
2022-08-22T19:41:04.922Z,10.85
2022-08-22T19:44:20.466Z,12.47
2022-08-22T19:47:28.912Z,9.45
2022-08-22T19:50:37.413Z,9.05
2022-08-22T19:54:16.467Z,9.45
2022-08-22T19:57:26.759Z,9.25
2022-08-22T20:00:52.813Z,10.27
2022-08-22T20:03:59.984Z,11.52
2022-08-22T20:07:40.107Z,10.40
2022-08-22T20:11:06.582Z,9.63
2022-08-22T20:14:22.410Z,11.68
2022-08-22T20:17:41.301Z,10.10
2022-08-22T20:21:00.783Z,14.48
2022-08-22T20:24:07.363Z,13.25
2022-08-22T20:27:18.628Z,10.57
2022-08-22T20:30:56.598Z,11.27
2022-08-22T20:34:04.396Z,12.77
2022-08-22T20:37:31.996Z,9.90
2022-08-22T20:41:11.489Z,10.40
2022-08-22T20:44:30.784Z,9.20
2022-08-22T20:47:41.283Z,9.98
2022-08-22T20:50:45.372Z,8.87
2022-08-22T20:53:56.921Z,9.52
2022-08-22T20:57:24.151Z,10.20
2022-08-22T21:00:33.170Z,11.27
2022-08-22T21:03:51.888Z,9.88
2022-08-22T21:07:01.934Z,9.33
2022-08-22T21:10:23.707Z,9.50
2022-08-22T21:13:35.264Z,9.35
2022-08-22T21:16:40.594Z,9.32
2022-08-22T21:19:44.382Z,11.88
2022-08-22T21:22:48.001Z,11.80
2022-08-22T21:26:02.574Z,10.65
2022-08-22T21:29:13.399Z,10.07
2022-08-22T21:32:32.801Z,11.50
2022-08-22T21:35:36.763Z,9.48
2022-08-22T21:39:06.779Z,11.13
2022-08-22T21:42:26.495Z,11.10
2022-08-22T21:45:49.979Z,11.02
2022-08-22T21:49:04.751Z,10.23
2022-08-22T21:52:08.567Z,9.18
2022-08-22T21:55:28.702Z,8.37
2022-08-22T21:58:36.826Z,8.65
2022-08-22T22:01:42.602Z,7.97
2022-08-22T22:04:46.763Z,11.80
2022-08-22T22:07:50.068Z,10.93
2022-08-22T22:10:58.260Z,8.87
2022-08-22T22:14:03.220Z,8.63
2022-08-22T22:17:08.031Z,10.15
2022-08-22T22:20:15.328Z,8.73
2022-08-22T22:23:20.308Z,10.70
2022-08-22T22:26:23.590Z,7.63
2022-08-22T22:29:28.404Z,10.30
2022-08-22T22:32:31.437Z,8.85
2022-08-22T22:35:34.971Z,12.23
2022-08-22T22:38:39.747Z,10.63
2022-08-22T22:41:43.106Z,10.77
2022-08-22T22:44:47.657Z,10.77
2022-08-22T22:47:53.134Z,10.52
2022-08-22T22:50:56.749Z,9.38
2022-08-22T22:54:00.518Z,9.20
2022-08-22T22:57:04.315Z,11.97
2022-08-22T23:00:09.078Z,14.82
2022-08-22T23:03:12.630Z,12.20
2022-08-22T23:06:19.447Z,11.07
2022-08-22T23:09:38.703Z,9.68
2022-08-22T23:12:48.260Z,13.37
2022-08-22T23:15:52.097Z,12.88
2022-08-22T23:18:56.686Z,12.05
2022-08-22T23:22:01.152Z,12.52
2022-08-22T23:25:06.526Z,10.63
2022-08-22T23:28:09.654Z,12.67
2022-08-22T23:31:17.690Z,15.15
2022-08-22T23:34:25.200Z,12.00
2022-08-22T23:37:28.759Z,15.57
2022-08-22T23:40:32.335Z,14.57
2022-08-22T23:43:36.901Z,17.37
2022-08-22T23:46:40.620Z,15.13
2022-08-22T23:49:44.480Z,17.17
2022-08-22T23:52:48.051Z,18.33
2022-08-22T23:55:51.448Z,17.62
2022-08-22T23:58:55.046Z,21.87
